AirNav   Everest Fuels
 
 1545 users online  

KRFG Rooke Field Airport
Refugio, Texas, USA

GOING TO REFUGIO?


FAA INFORMATION EFFECTIVE 14 JULY 2022

Location

FAA Identifier: RFG
Lat/Long: 28-17-45.8400N 097-19-34.9700W
28-17.764000N 097-19.582833W
28.2960667,-97.3263806
(estimated)
Elevation: 56 ft. / 17.1 m (surveyed)
Variation: 07E (1985)
From city: 3 miles W of REFUGIO, TX
Time zone: UTC -5 (UTC -6 during Standard Time)
Zip code: 78393

Airport Operations

Airport use: Open to the public
Activation date: 01/1945
Control tower: no
ARTCC: HOUSTON CENTER
FSS: SAN ANGELO FLIGHT SERVICE STATION
NOTAMs facility: SJT (NOTAM-D service available)
Attendance: 0800-1700
Pattern altitude: 856 ft. MSL
Wind indicator: yes
Segmented circle: yes
Lights: MIRL RWY 14L/32R SS-SR PRESET LOW, TO INCR INTST - CTAF.
Beacon: white-green (lighted land airport)
Operates sunset to sunrise.

Airport Communications

CTAF/UNICOM: 122.8
WX AWOS-3 at T69 (19 nm SW): 118.25 (361-364-1844)
WX ASOS at RKP (20 nm SE): 119.275 (361-729-2372)

Nearby radio navigation aids

VOR radial/distance  VOR name  Freq  Var
CRPr006/24.4CORPUS CHRISTI VORTAC115.5009E

 
NDB name  Hdg/Dist  Freq  Var  ID
MELLON RANCH273/6.437506EMNO -- -. ---

Airport Services

Fuel available: 100LL MOGAS
100LL:FUEL AVBL 24 HRS SELF SVC WITH CREDIT CARD.
Parking: hangars and tiedowns
Airframe service: NONE
Powerplant service: NONE
Bottled oxygen: NONE
Bulk oxygen: NONE

Runway Information

Runway 14L/32R

Dimensions: 4361 x 60 ft. / 1329 x 18 m
Surface: asphalt, in good condition
Weight bearing capacity: 
Single wheel: 9.0
Runway edge lights: medium intensity
Runway edge markings: RWY MARKINGS FADED.
Operational restrictions: RWY LINE OF SIGHT LTD BTN RWY ENDS.
RUNWAY 14L  RUNWAY 32R
Latitude: 28-18.062667N28-17.435333N
Longitude: 097-19.757500W097-19.359167W
Elevation: 52.0 ft.54.0 ft.
Traffic pattern: leftright
Runway heading: 144 magnetic, 151 true324 magnetic, 331 true
Displaced threshold: no166 ft.
Markings: nonprecision, in poor conditionnonprecision, in poor condition
Visual slope indicator: 2-light PAPI on left (3.00 degrees glide path)
Touchdown point: yes, no lightsyes, no lights
Obstructions: 11 ft. tree, 277 ft. from runway, 10 ft. left of centerline, 7:1 slope to clear15 ft. road, 375 ft. from runway, 145 ft. left of centerline, 11:1 slope to clear
APCH SLOPE 36:1 FM DSPLCD THR OVR 15 FT ROAD 541 FT DSTC; 22:1 OVR 40 FT TWR, 882 FT DSTC, 125 FT R.

Runway 14R/32L

Dimensions: 3000 x 100 ft. / 914 x 30 m
Surface: turf, in fair condition
RUNWAY 14R  RUNWAY 32L
Latitude: 28-18.004167N28-17.571667N
Longitude: 097-19.754167W097-19.481667W
Elevation: 56.0 ft.56.0 ft.
Traffic pattern: rightleft
Markings: none, in fair conditionnone, in fair condition
Touchdown point: yes, no lightsyes, no lights
Obstructions: 28 ft. trees, 966 ft. from runway, 168 ft. of centerline, 34:1 slope to clearnone

Airport Ownership and Management from official FAA records

Ownership: Publicly-owned
Owner: REFUGIO COUNTY
808 COMMERCE RM 104
REFUGIO, TX 78377
Phone 361-526-4434
Manager: GARY HENRY
PO BOX 637
WOODSBORO, TX 78393
Phone 361-438-1775
CELL 361-533-1346.

Airport Operational Statistics

Aircraft based on the field: 17
Single engine airplanes: 9
Multi engine airplanes: 4
Helicopters: 1
Gliders airplanes: 3
    
Aircraft operations: avg 75/week *
77% local general aviation
23% transient general aviation
* for 12-month period ending 03 May 2020

Additional Remarks

RWY 14R/32L SW OF RWY 14L/32R FOR GLIDER OPNS ONLY.
SIMUL PARL RWY OPNS NA.
GLIDER ACTVTY ON & INVOF ARPT.
WILDLIFE ON & INVOF ARPT.
FOR CD CTC HOUSTON ARTCC AT 281-230-5622.

Instrument Procedures

There are no published instrument procedures at KRFG.

Some nearby airports with instrument procedures:

TX2 - Chase Field Industrial Airport (18 nm W)
T69 - Alfred C 'Bubba' Thomas Airport (19 nm SW)
KRKP - Aransas County Airport (20 nm SE)
KTFP - McCampbell-Porter Airport (24 nm S)
KNGT - Goliad Naval Outlying Field (24 nm NW)
 
Loc | Ops | Rwys | IFR | FBO | Links
Com | Nav | Svcs | Stats | Notes
Area around KRFG (Rooke Field Airport)
 
Road maps at: MapQuest Bing Google
 
Aerial photo
WARNING: Photo may not be current or correct
Aerial photo of KRFG (Rooke Field Airport)
Do you have a better or more recent aerial photo of Rooke Field Airport that you would like to share? If so, please send us your photo.

 
Sectional chart

 
Airport distance calculator
Flying to Rooke Field Airport? Find the distance to fly.

From to KRFG

Sunrise and sunset
Times for 10-Aug-2022
 Local
(UTC-5)
 Zulu
(UTC)
Morning civil twilight06:3211:32
Sunrise06:5711:57
Sunset20:1201:12
Evening civil twilight20:3701:37

Current date and time
Zulu (UTC)  10-Aug-2022 13:55:15
Local (UTC-5)  10-Aug-2022 08:55:15
 
METAR
KT69 
19nm SW 
101335Z AUTO 00000KT 10SM CLR 28/25 A3006 RMK A01
KRKP 
19nm SE 
101253Z AUTO 00000KT 10SM CLR 28/25 A3006 RMK AO2 SLP179 T02830250
KTFP 
24nm S 
101315Z AUTO 00000KT 10SM CLR 29/26 A3005 RMK AO2 T02870257
KBEA 
25nm W 
101335Z AUTO 16003KT 10SM CLR 27/24 A3007 RMK AO2 T02710235
KRAS 
32nm SE 
101335Z AUTO 17006KT 10SM SCT020 SCT027 SCT037 30/25 A3008 RMK AO2 T02980250
KCRP 
33nm S 
101251Z 00000KT 10SM FEW018 FEW250 27/26 A3005 RMK AO2 SLP176 TCU DSNT SE S T02670256
KRBO 
37nm SW 
101335Z AUTO 00000KT 10SM CLR 28/25 A3007 RMK AO2 T02770250
KNGP 
37nm S 
101256Z 17003KT 10SM FEW019 FEW350 29/26 A3005 RMK AO2 SLP174 TCU DSNT SE T02940256
TAF
KCRP 
33nm S 
101120Z 1012/1112 VRB06KT P6SM FEW018 FM101700 13014G22KT P6SM FEW040 FM110200 14007KT P6SM FEW020 TEMPO 1108/1112 -SHRA BKN018
KNGP 
37nm S 
1009/1107 17007KT 9999 VCSH FEW025 SCT350 QNH2999INS TEMPO 1009/1012 BKN020 BKN350 FM101700 13010KT 9999 VCTS SCT028CB SCT150 BKN350 QNH2998INS FM102000 12014G20KT 9999 FEW030 FEW150 BKN350 QNH2994INS FM110200 15012KT 9999 FEW020 FEW150 BKN350 QNH2998INS FM110600 15007KT 9999 BKN020 BKN150 OVC350 QNH3000INS AUTOMATED SENSOR METWATCH 1009 TIL 1011 T28/1012Z T36/1020Z AMD 0910 FN20044
KVCT 
40nm NE 
100520Z 1006/1106 VRB06KT P6SM FEW020 FM102000 14012KT P6SM VCTS SCT050CB FM110200 VRB06KT P6SM FEW020
NOTAMs
Click for the latest NOTAMs
NOTAMs are issued by the DoD/FAA and will open in a separate window not controlled by AirNav.

 

 
 

FBO, Fuel Providers, and Aircraft Ground Support

  
 Business Name 
 
 Contact 
 
 Services / Description 
 
Fuel Prices
 
Comments
  
Midcoast Aviation Inc 361-438-1775
no information available

If you are affiliated with Midcoast Aviation Inc and would like to show here your services, contact info, web link, logo, and more, click here
100LL
SS $5.95 
 Updated 18-Jul-2022
 
   write
SS=Self service
Update Fuel Prices
 

Would you like to see your business listed on this page?

 If your business provides an interesting product or service to pilots, flight crews, aircraft, or users of the Rooke Field Airport, you should consider listing it here.  To start the listing process, click on the button below
 
Add a business
 

Other Pages about Rooke Field Airport

Update a link
 
Copyright © AirNav, LLC. All rights reserved. Privacy Policy  Contact